Time;durP1;ratioP1;P1;durP2;ratioP2;P2;SDS_P1;SDS_P2;PMS_P1;PMS_P2;Temp;Humidity;BMP_temperature;BMP_pressure;BME280_temperature;BME280_humidity;BME280_pressure;Samples;Min_cycle;Max_cycle;Signal;HPM_P1;HPM_P2
2022/08/22 00:01:14;;;;;;;3.05;1.95;;;;;;;26.38;55.53;100423.78;5073858;28;20388;-77
2022/08/22 00:03:51;;;;;;;3.13;2.15;;;;;;;26.38;55.60;100418.38;5055779;28;20133;-77
2022/08/22 00:06:29;;;;;;;2.95;2.30;;;;;;;26.38;55.52;100416.50;5072115;28;20041;-77
2022/08/22 00:09:05;;;;;;;2.70;2.20;;;;;;;26.38;55.59;100424.63;5072667;28;20400;-77
2022/08/22 00:11:35;;;;;;;5.40;2.17;;;;;;;26.39;55.58;100417.31;5055034;28;20063;-77
2022/08/22 00:14:13;;;;;;;3.55;2.25;;;;;;;26.40;55.46;100405.44;5073338;28;20048;-76
2022/08/22 00:17:13;;;;;;;4.05;2.30;;;;;;;26.39;55.33;100404.59;5073358;28;20048;-76
2022/08/22 00:19:52;;;;;;;2.78;2.35;;;;;;;26.39;55.52;100406.47;5071355;28;20052;-77
2022/08/22 00:22:34;;;;;;;3.47;2.33;;;;;;;26.40;55.41;100394.56;5071826;28;20045;-77
2022/08/22 00:25:10;;;;;;;2.63;2.20;;;;;;;26.40;55.32;100410.84;5073572;28;20048;-77
2022/08/22 00:28:10;;;;;;;3.55;2.00;;;;;;;26.41;55.19;100409.81;5073142;28;20060;-77
2022/08/22 00:31:19;;;;;;;3.28;2.20;;;;;;;26.40;55.10;100402.72;5073438;28;20384;-76
2022/08/22 00:34:09;;;;;;;2.40;2.00;;;;;;;26.40;55.01;100408.16;5072784;28;20403;-76
2022/08/22 00:36:39;;;;;;;3.33;2.08;;;;;;;26.41;55.00;100401.69;5072761;28;20049;-77
2022/08/22 00:39:17;;;;;;;3.15;2.42;;;;;;;26.40;54.91;100394.56;5057446;28;20061;-76
2022/08/22 00:42:03;;;;;;;4.35;2.20;;;;;;;26.41;54.82;100400.84;5076142;28;20055;-76
2022/08/22 00:44:50;;;;;;;3.33;2.58;;;;;;;26.41;54.86;100415.25;5076237;28;20052;-76
2022/08/22 00:47:30;;;;;;;4.32;2.33;;;;;;;26.40;54.96;100432.56;5076714;28;20044;-76
2022/08/22 00:50:18;;;;;;;4.45;2.50;;;;;;;26.40;54.88;100429.84;5076495;28;20052;-76
2022/08/22 00:53:22;;;;;;;2.75;2.10;;;;;;;26.41;54.89;100407.09;5076893;28;20041;-76
2022/08/22 00:56:02;;;;;;;2.97;1.83;;;;;;;26.41;54.93;100407.09;5074867;28;20044;-76
2022/08/22 00:58:52;;;;;;;2.83;2.10;;;;;;;26.42;54.70;100437.84;5076287;28;20061;-76
2022/08/22 01:01:30;;;;;;;3.33;2.42;;;;;;;26.42;54.83;100419.66;5076509;28;20056;-76
2022/08/22 01:04:09;;;;;;;3.88;2.10;;;;;;;26.42;54.70;100395.25;5075743;28;20048;-76
2022/08/22 01:06:43;;;;;;;4.07;2.03;;;;;;;26.42;54.54;100397.97;5075690;28;20047;-76
2022/08/22 01:09:30;;;;;;;3.85;2.30;;;;;;;26.41;54.62;100385.41;5074168;28;20053;-77
2022/08/22 01:12:00;;;;;;;3.80;2.45;;;;;;;26.41;54.40;100415.25;5076380;28;20051;-76
2022/08/22 01:14:41;;;;;;;2.97;2.15;;;;;;;26.42;54.73;100416.13;5076598;28;20052;-76
2022/08/22 01:17:27;;;;;;;2.53;1.92;;;;;;;26.42;54.63;100392.53;5076231;28;20075;-76
2022/08/22 01:20:17;;;;;;;3.50;2.42;;;;;;;26.43;54.63;100398.78;5075940;28;20056;-77
2022/08/22 01:23:05;;;;;;;2.95;2.17;;;;;;;26.43;54.64;100396.09;5076145;28;20071;-77
2022/08/22 01:25:41;;;;;;;2.58;2.22;;;;;;;26.43;54.70;100396.09;5074549;28;20052;-76
2022/08/22 01:28:30;;;;;;;2.90;2.15;;;;;;;26.43;54.64;100388.78;5075936;28;20052;-76
2022/08/22 01:31:22;;;;;;;2.58;2.08;;;;;;;26.43;54.70;100383.34;5075765;28;20071;-76
2022/08/22 01:34:05;;;;;;;3.10;2.08;;;;;;;26.43;54.64;100383.34;5075593;28;20047;-76
2022/08/22 01:36:51;;;;;;;3.17;1.88;;;;;;;26.43;54.62;100377.91;5075940;28;20049;-76
2022/08/22 01:39:39;;;;;;;4.60;1.98;;;;;;;26.44;54.86;100381.47;5075611;28;20052;-76
2022/08/22 01:42:34;;;;;;;3.78;2.00;;;;;;;26.43;54.61;100385.22;5075809;28;20480;-76
2022/08/22 01:45:22;;;;;;;2.20;1.73;;;;;;;26.44;54.59;100390.44;5074304;28;20053;-76
2022/08/22 01:48:06;;;;;;;6.10;2.17;;;;;;;26.43;54.52;100383.34;5075681;28;20048;-77
2022/08/22 01:50:51;;;;;;;2.78;2.25;;;;;;;26.44;54.62;100384.19;5074438;28;20045;-76
2022/08/22 01:53:59;;;;;;;2.78;2.05;;;;;;;26.43;54.70;100396.91;5075118;28;20048;-77
2022/08/22 01:56:32;;;;;;;2.58;2.08;;;;;;;26.44;54.53;100393.16;5052619;28;20440;-77
2022/08/22 01:59:07;;;;;;;2.70;2.40;;;;;;;26.44;54.84;100398.59;5052521;28;20045;-76
2022/08/22 02:01:43;;;;;;;2.70;2.00;;;;;;;26.45;54.68;100391.31;5053730;28;20053;-77
2022/08/22 02:05:01;;;;;;;3.38;2.00;;;;;;;26.45;54.52;100402.19;5052201;28;20049;-76
2022/08/22 02:07:53;;;;;;;2.30;1.85;;;;;;;26.44;54.52;100397.75;5013081;28;20062;-75
2022/08/22 02:10:47;;;;;;;3.22;2.10;;;;;;;26.45;54.71;100394.03;5013168;28;20074;-76
2022/08/22 02:13:23;;;;;;;3.55;2.20;;;;;;;26.44;54.63;100390.44;5012782;28;20158;-76
2022/08/22 02:16:23;;;;;;;3.22;2.25;;;;;;;26.44;54.64;100398.59;5012762;28;20154;-76
2022/08/22 02:19:04;;;;;;;4.45;2.28;;;;;;;26.44;54.43;100390.44;4973324;28;20073;-76
2022/08/22 02:21:55;;;;;;;3.50;2.08;;;;;;;26.45;54.58;100391.31;4958053;28;20066;-76
2022/08/22 02:25:06;;;;;;;2.65;2.03;;;;;;;26.44;54.57;100390.44;4973547;28;20051;-76
2022/08/22 02:27:45;;;;;;;3.97;2.03;;;;;;;26.45;54.60;100394.03;4957325;28;20051;-76
2022/08/22 02:30:39;;;;;;;3.05;2.25;;;;;;;26.44;54.72;100385.03;4974170;28;20419;-76
2022/08/22 02:33:31;;;;;;;4.38;2.05;;;;;;;26.45;54.45;100392.16;4939764;28;20059;-76
2022/08/22 02:36:32;;;;;;;2.75;2.05;;;;;;;26.46;54.60;100393.88;4939224;29;20094;-78
2022/08/22 02:39:02;;;;;;;4.25;2.03;;;;;;;26.45;54.58;100400.31;4973780;28;20063;-76
2022/08/22 02:41:53;;;;;;;3.05;2.33;;;;;;;26.46;54.72;100396.59;4973142;28;20090;-75
2022/08/22 02:44:46;;;;;;;3.30;2.20;;;;;;;26.45;54.51;100386.72;5012188;28;20457;-80
2022/08/22 02:47:22;;;;;;;3.70;2.50;;;;;;;26.45;54.50;100384.00;5012267;28;20061;-77
2022/08/22 02:50:10;;;;;;;5.10;2.05;;;;;;;26.45;54.34;100389.44;5012188;28;20069;-75
2022/08/22 02:53:18;;;;;;;3.40;2.35;;;;;;;26.45;54.30;100385.91;5012177;28;20533;-75
2022/08/22 02:56:05;;;;;;;3.13;2.20;;;;;;;26.44;54.45;100382.31;5028601;28;20064;-75
2022/08/22 02:58:55;;;;;;;3.80;2.50;;;;;;;26.43;54.32;100388.78;5051988;28;20048;-75
2022/08/22 03:01:29;;;;;;;3.33;2.38;;;;;;;26.42;54.52;100397.97;5051777;28;20061;-75
2022/08/22 03:04:23;;;;;;;2.95;2.13;;;;;;;26.43;54.37;100393.38;5051406;28;20057;-75
2022/08/22 03:06:59;;;;;;;3.20;2.30;;;;;;;26.41;54.47;100398.13;5051489;28;20079;-75
2022/08/22 03:09:35;;;;;;;3.60;2.30;;;;;;;26.42;54.63;100388.97;5051524;28;20057;-76
2022/08/22 03:12:21;;;;;;;3.25;2.47;;;;;;;26.40;54.45;100400.00;5051787;28;20057;-76
2022/08/22 03:15:19;;;;;;;2.78;2.13;;;;;;;26.38;54.43;100391.22;5051872;28;20452;-76
2022/08/22 03:18:23;;;;;;;3.70;2.20;;;;;;;26.37;54.55;100395.81;5067807;28;20064;-75
2022/08/22 03:21:33;;;;;;;3.47;2.45;;;;;;;26.36;54.35;100391.41;5073556;28;20392;-75
2022/08/22 03:24:48;;;;;;;2.75;2.10;;;;;;;26.36;54.22;100390.56;5052035;28;20053;-75
2022/08/22 03:27:22;;;;;;;3.65;2.75;;;;;;;26.34;54.32;100392.63;5011676;28;20531;-75
2022/08/22 03:30:21;;;;;;;4.03;2.38;;;;;;;26.34;54.47;100392.63;4995563;28;20172;-75
2022/08/22 03:32:53;;;;;;;2.92;2.40;;;;;;;26.34;54.56;100384.50;5014365;28;20423;-76
2022/08/22 03:35:25;;;;;;;3.35;2.78;;;;;;;26.33;54.45;100391.78;4995417;28;20061;-74
2022/08/22 03:38:07;;;;;;;3.67;2.10;;;;;;;26.33;54.44;100394.50;5012175;28;20069;-77
2022/08/22 03:40:46;;;;;;;4.88;2.63;;;;;;;26.33;54.44;100393.63;5011938;28;20054;-76
2022/08/22 03:43:19;;;;;;;3.33;2.15;;;;;;;26.34;54.45;100388.03;5011819;28;20066;-75
2022/08/22 03:45:53;;;;;;;2.50;2.28;;;;;;;26.34;54.42;100389.91;5011529;28;20154;-75
2022/08/22 03:48:36;;;;;;;2.83;2.10;;;;;;;26.34;54.61;100393.47;5011946;28;20058;-75
2022/08/22 03:51:21;;;;;;;3.72;1.70;;;;;;;26.34;54.05;100387.22;5011244;28;20518;-75
2022/08/22 03:54:13;;;;;;;2.85;2.13;;;;;;;26.34;54.24;100382.63;5011994;28;20069;-76
2022/08/22 03:57:18;;;;;;;2.53;2.05;;;;;;;26.33;54.32;100399.94;5011631;28;20054;-75
2022/08/22 03:59:51;;;;;;;2.72;2.25;;;;;;;26.33;54.41;100399.06;5010995;28;20050;-75
2022/08/22 04:02:58;;;;;;;3.08;2.20;;;;;;;26.33;54.26;100404.50;5011585;28;20449;-75
2022/08/22 04:05:43;;;;;;;4.20;2.60;;;;;;;26.31;54.26;100398.44;5071378;28;20051;-75
2022/08/22 04:08:38;;;;;;;3.75;2.40;;;;;;;26.30;54.66;100394.03;5072984;28;20481;-75
2022/08/22 04:11:48;;;;;;;5.97;2.40;;;;;;;26.30;54.64;100396.75;5071657;28;20049;-75
2022/08/22 04:14:24;;;;;;;3.10;2.20;;;;;;;26.29;54.65;100397.75;5075662;28;20051;-75
2022/08/22 04:17:10;;;;;;;3.55;2.30;;;;;;;26.30;54.42;100402.19;5077206;28;20049;-75
2022/08/22 04:19:48;;;;;;;4.60;2.53;;;;;;;26.30;54.45;100403.03;5076560;28;20059;-75
2022/08/22 04:22:53;;;;;;;3.72;2.40;;;;;;;26.30;54.54;100396.75;5076752;28;20044;-74
2022/08/22 04:28:48;;;;;;;4.85;2.58;;;;;;;26.30;54.41;100407.59;5076666;28;20055;-75
2022/08/22 04:31:31;;;;;;;2.78;2.10;;;;;;;26.30;54.25;100399.47;5076567;28;20052;-74
2022/08/22 04:34:06;;;;;;;3.42;2.45;;;;;;;26.29;54.48;100401.34;5076628;28;20476;-74
2022/08/22 04:36:42;;;;;;;4.13;2.47;;;;;;;26.30;54.45;100399.47;5077189;28;20048;-74
2022/08/22 04:39:17;;;;;;;3.33;2.30;;;;;;;26.28;54.41;100399.63;5077197;28;20050;-74
2022/08/22 04:42:13;;;;;;;3.47;2.55;;;;;;;26.28;54.30;100412.38;5076641;28;20041;-74
2022/08/22 04:45:15;;;;;;;6.50;2.35;;;;;;;26.28;54.35;100417.78;5076284;28;20044;-75
2022/08/22 04:47:57;;;;;;;4.05;2.50;;;;;;;26.28;54.32;100413.19;5076318;28;20048;-75
2022/08/22 04:50:33;;;;;;;3.70;2.20;;;;;;;26.27;54.30;100406.09;5076566;28;20503;-75
2022/08/22 04:53:01;;;;;;;4.70;2.65;;;;;;;26.28;54.25;100420.50;5076733;28;20048;-75
2022/08/22 04:55:42;;;;;;;3.38;2.63;;;;;;;26.29;54.24;100414.03;5076142;28;20496;-75
2022/08/22 04:59:00;;;;;;;3.78;2.30;;;;;;;26.26;54.27;100415.28;5074800;28;20488;-75
2022/08/22 05:01:43;;;;;;;3.40;2.65;;;;;;;26.26;54.20;100414.44;5054494;28;20065;-75
2022/08/22 05:04:25;;;;;;;4.80;2.75;;;;;;;26.24;54.23;100413.78;5054207;28;20053;-75
2022/08/22 05:07:05;;;;;;;3.65;2.70;;;;;;;26.23;54.42;100417.53;5054221;28;20053;-75
2022/08/22 05:09:36;;;;;;;4.15;2.70;;;;;;;26.24;54.56;100421.91;5053855;28;20060;-75
2022/08/22 05:12:10;;;;;;;3.75;2.47;;;;;;;26.26;54.68;100428.84;5053809;28;20389;-74
2022/08/22 05:14:46;;;;;;;4.78;2.70;;;;;;;26.25;54.87;100427.16;5053787;28;20052;-74
2022/08/22 05:17:23;;;;;;;3.78;2.30;;;;;;;26.26;54.84;100428.84;5053801;28;20052;-74
2022/08/22 05:19:55;;;;;;;4.22;2.85;;;;;;;26.24;54.72;100430.06;5053720;28;20052;-74
2022/08/22 05:22:39;;;;;;;3.70;2.90;;;;;;;26.23;54.66;100425.66;5053927;28;20064;-74
2022/08/22 05:25:11;;;;;;;4.03;3.05;;;;;;;26.23;54.62;100423.78;5053717;28;20045;-75
2022/08/22 05:27:43;;;;;;;2.70;2.38;;;;;;;26.23;54.57;100436.50;5036833;28;20063;-74
2022/08/22 05:30:17;;;;;;;4.47;2.47;;;;;;;26.21;54.66;100423.16;5053799;28;20045;-74
2022/08/22 05:33:05;;;;;;;2.85;2.53;;;;;;;26.21;54.40;100425.88;5053127;28;20053;-74
2022/08/22 05:35:37;;;;;;;3.47;2.45;;;;;;;26.20;54.46;100424.16;5066589;28;20100;-74
2022/08/22 05:38:09;;;;;;;5.63;2.63;;;;;;;26.19;54.32;100417.06;5073722;28;20059;-74
2022/08/22 05:40:37;;;;;;;3.40;2.47;;;;;;;26.20;54.30;100426.88;5075450;28;20510;-77
2022/08/22 05:43:09;;;;;;;2.67;2.38;;;;;;;26.21;54.23;100427.72;5058395;28;20052;-74
2022/08/22 05:45:39;;;;;;;3.70;2.53;;;;;;;26.21;54.27;100434.00;5075238;28;20052;-74
2022/08/22 05:48:21;;;;;;;2.90;2.25;;;;;;;26.22;54.22;100437.56;5075002;28;20055;-74
2022/08/22 05:50:55;;;;;;;5.30;2.60;;;;;;;26.21;54.29;100428.56;5075683;28;20058;-74
2022/08/22 05:53:37;;;;;;;3.35;2.83;;;;;;;26.22;54.06;100435.69;5075488;28;20049;-74
2022/08/22 05:56:20;;;;;;;5.65;2.70;;;;;;;26.23;54.16;100436.50;5075293;28;20064;-77
2022/08/22 05:58:52;;;;;;;3.05;2.75;;;;;;;26.23;54.12;100433.81;5075007;28;20036;-77
2022/08/22 06:01:34;;;;;;;4.40;2.83;;;;;;;26.22;54.26;100427.53;5074903;28;20052;-77
2022/08/22 06:04:03;;;;;;;;;;;;;;;26.24;54.10;100435.47;5074900;28;20053;-75
2022/08/22 06:06:37;;;;;;;3.28;2.70;;;;;;;26.23;54.21;100437.34;5074397;28;20391;-74
2022/08/22 06:09:31;;;;;;;3.38;2.55;;;;;;;26.25;54.30;100439.88;5074771;28;20036;-74
2022/08/22 06:12:10;;;;;;;4.05;2.90;;;;;;;26.24;54.37;100436.31;5074401;28;20063;-74
2022/08/22 06:15:25;;;;;;;4.93;3.05;;;;;;;26.25;54.24;100446.16;5074982;28;20460;-74
2022/08/22 06:17:55;;;;;;;3.72;2.70;;;;;;;26.27;54.23;100454.09;5075048;28;20052;-74
2022/08/22 06:20:41;;;;;;;3.00;2.30;;;;;;;26.26;54.23;100445.13;5073986;28;20052;-74
2022/08/22 06:23:20;;;;;;;3.70;2.72;;;;;;;26.27;54.53;100446.81;5075412;28;20036;-77
2022/08/22 06:25:50;;;;;;;5.00;3.17;;;;;;;26.26;54.99;100450.56;5074971;28;20048;-77
2022/08/22 06:28:27;;;;;;;6.22;4.22;;;;;;;26.26;54.61;100452.44;5072848;28;20495;-74
2022/08/22 06:30:56;;;;;;;5.55;4.05;;;;;;;26.20;54.38;100439.59;5090069;28;20503;-74
2022/08/22 06:33:29;;;;;;;5.60;4.00;;;;;;;26.16;54.54;100441.00;5073556;28;20044;-77
2022/08/22 06:39:11;;;;;;;6.40;4.22;;;;;;;26.09;55.13;100440.88;5074316;28;20044;-77
2022/08/22 06:41:49;;;;;;;8.18;4.63;;;;;;;26.06;55.29;100444.84;5072864;28;20056;-76
2022/08/22 06:44:25;;;;;;;8.70;5.30;;;;;;;26.05;55.69;100437.72;5074119;28;20055;-75
2022/08/22 06:46:57;;;;;;;6.82;4.63;;;;;;;26.03;55.52;100437.06;5073520;28;20052;-75
2022/08/22 06:49:26;;;;;;;7.40;5.65;;;;;;;25.97;55.57;100437.81;5073529;28;20044;-75
2022/08/22 06:52:00;;;;;;;5.90;5.25;;;;;;;25.92;55.90;100437.50;5073572;28;20384;-75
2022/08/22 06:54:33;;;;;;;5.93;4.82;;;;;;;25.89;55.83;100440.59;5073449;28;20051;-75
2022/08/22 06:57:02;;;;;;;;;;;;;;;25.85;56.07;100437.41;5074017;28;20049;-75
2022/08/22 06:59:34;;;;;;;7.82;5.32;;;;;;;25.85;56.28;100439.28;5073519;28;19921;-77
2022/08/22 07:02:19;;;;;;;6.20;4.90;;;;;;;25.84;56.39;100440.28;5073168;28;20071;-76
2022/08/22 07:04:50;;;;;;;8.90;5.20;;;;;;;25.82;56.09;100447.78;5073112;28;20089;-76
2022/08/22 07:07:19;;;;;;;6.00;5.00;;;;;;;25.79;56.03;100446.28;5073495;28;20040;-76
2022/08/22 07:09:54;;;;;;;6.40;5.43;;;;;;;25.74;55.86;100439.69;5074573;28;20044;-76
2022/08/22 07:12:30;;;;;;;7.85;5.00;;;;;;;25.69;55.97;100436.69;5073790;28;20045;-76
2022/08/22 07:15:07;;;;;;;5.50;4.85;;;;;;;25.63;56.09;100441.81;5074062;28;20052;-76
2022/08/22 07:17:35;;;;;;;6.70;4.90;;;;;;;25.61;56.56;100440.31;5073832;28;20499;-76
2022/08/22 07:20:26;;;;;;;6.82;5.28;;;;;;;25.61;56.57;100443.03;5073837;28;20404;-76
2022/08/22 07:22:58;;;;;;;5.20;4.50;;;;;;;25.59;56.90;100439.66;5073315;28;20048;-75
2022/08/22 07:25:27;;;;;;;6.30;4.88;;;;;;;25.63;57.16;100440.97;5073652;28;20052;-76
2022/08/22 07:28:28;;;;;;;7.88;5.03;;;;;;;25.67;57.26;100439.56;5073280;28;20052;-76
2022/08/22 07:31:16;;;;;;;8.57;5.35;;;;;;;25.69;57.11;100442.97;5073442;28;20045;-76
2022/08/22 07:33:48;;;;;;;6.30;4.25;;;;;;;25.72;57.08;100450.72;5073040;28;20055;-76
2022/08/22 07:36:29;;;;;;;8.40;6.03;;;;;;;25.73;57.63;100443.44;5073486;28;20051;-76
2022/08/22 07:39:38;;;;;;;9.75;6.18;;;;;;;25.75;57.74;100446.81;5073539;28;20288;-76
2022/08/22 07:42:21;;;;;;;7.60;5.72;;;;;;;25.75;57.41;100441.38;5073210;28;20044;-75
2022/08/22 07:45:12;;;;;;;7.22;4.45;;;;;;;25.77;57.28;100447.47;5073649;28;20047;-75
2022/08/22 07:47:49;;;;;;;6.85;3.97;;;;;;;25.82;57.06;100443.22;5073155;28;20048;-75
2022/08/22 07:50:38;;;;;;;5.53;3.30;;;;;;;25.85;57.10;100429.28;5077102;28;20161;-76
2022/08/22 07:53:33;;;;;;;6.20;5.40;;;;;;;25.86;56.64;100435.53;5077928;28;20052;-75
2022/08/22 07:56:03;;;;;;;6.82;5.32;;;;;;;25.86;56.72;100430.97;5076967;28;20048;-75
2022/08/22 07:58:34;;;;;;;6.35;5.55;;;;;;;25.84;56.40;100434.88;5077365;28;20059;-75
2022/08/22 08:01:02;;;;;;;5.93;5.35;;;;;;;25.82;56.18;100434.22;5078102;28;20484;-75
2022/08/22 08:03:30;;;;;;;7.03;5.65;;;;;;;25.82;56.28;100434.22;5077086;28;20056;-75
2022/08/22 08:06:00;;;;;;;6.13;4.22;;;;;;;25.82;56.42;100431.53;5076665;28;20040;-75
2022/08/22 08:08:37;;;;;;;4.35;3.88;;;;;;;25.85;56.39;100440.13;5076745;28;20048;-75
2022/08/22 08:11:09;;;;;;;4.50;2.92;;;;;;;25.87;56.00;100432.63;5077250;28;20059;-75
2022/08/22 08:13:41;;;;;;;5.40;3.15;;;;;;;25.91;56.15;100433.13;5077155;28;20053;-75
2022/08/22 08:16:16;;;;;;;4.10;3.25;;;;;;;25.95;56.12;100436.31;5076810;28;20044;-75
2022/08/22 08:18:47;;;;;;;8.02;4.82;;;;;;;25.96;56.36;100440.69;5077246;28;20050;-75
2022/08/22 08:21:35;;;;;;;5.35;4.72;;;;;;;25.94;56.27;100440.06;5076864;28;20048;-75
2022/08/22 08:24:07;;;;;;;5.28;4.20;;;;;;;25.94;56.20;100448.19;5076398;28;20059;-75
2022/08/22 08:28:32;;;;;;;6.47;4.38;;;;;;;25.93;56.18;100439.22;5076275;28;20037;-75
2022/08/22 08:29:28;;;;;;;5.20;4.45;;;;;;;25.93;55.86;100441.94;5076872;28;20067;-75
2022/08/22 08:31:59;;;;;;;8.30;4.00;;;;;;;25.93;55.87;100441.94;5076658;28;20064;-75
2022/08/22 08:34:28;;;;;;;5.13;4.00;;;;;;;25.92;55.92;100434.78;5076539;28;20044;-75
2022/08/22 08:37:04;;;;;;;4.57;3.78;;;;;;;25.92;55.93;100445.63;5076346;28;20047;-75
2022/08/22 08:39:48;;;;;;;8.13;3.75;;;;;;;25.92;56.39;100451.06;5076572;28;20052;-75
2022/08/22 08:42:31;;;;;;;5.80;3.30;;;;;;;25.93;56.11;100447.34;5076326;28;20045;-75
2022/08/22 08:45:07;;;;;;;7.03;3.38;;;;;;;25.94;56.21;100449.03;5076769;28;20055;-75
2022/08/22 08:48:01;;;;;;;6.90;3.90;;;;;;;25.91;56.02;100443.97;5076307;28;20051;-75
2022/08/22 08:50:30;;;;;;;5.13;3.97;;;;;;;25.92;55.76;100442.94;5074823;28;20064;-75
2022/08/22 08:53:33;;;;;;;3.88;3.15;;;;;;;25.92;55.51;100451.06;5075992;28;20044;-75
2022/08/22 08:56:19;;;;;;;3.80;2.67;;;;;;;25.91;56.04;100446.69;5074400;28;20048;-75
2022/08/22 08:59:26;;;;;;;4.70;3.10;;;;;;;25.92;55.61;100444.81;5074883;28;20048;-75
2022/08/22 09:02:02;;;;;;;3.63;3.13;;;;;;;25.92;55.82;100442.09;5074278;28;20412;-75
2022/08/22 09:04:58;;;;;;;4.72;3.25;;;;;;;25.94;55.74;100445.47;5074230;28;20065;-75
2022/08/22 09:07:37;;;;;;;3.78;2.88;;;;;;;25.94;55.84;100443.59;5073827;28;20385;-75
2022/08/22 09:10:42;;;;;;;3.53;2.65;;;;;;;25.97;56.11;100442.38;5073649;28;20044;-75
2022/08/22 09:13:27;;;;;;;4.55;2.72;;;;;;;25.98;56.40;100439.50;5074019;28;20439;-75
2022/08/22 09:16:16;;;;;;;3.67;3.17;;;;;;;26.00;56.14;100444.72;5073447;28;20053;-75
2022/08/22 09:18:58;;;;;;;3.88;2.67;;;;;;;26.01;56.19;100433.72;5056391;28;20059;-74
2022/08/22 09:21:28;;;;;;;3.28;2.70;;;;;;;26.03;56.16;100434.34;5074112;28;20072;-75
2022/08/22 09:24:28;;;;;;;2.92;2.15;;;;;;;26.04;55.87;100438.75;5073619;28;20045;-75
2022/08/22 09:27:02;;;;;;;2.85;2.50;;;;;;;26.05;55.65;100429.59;5074207;28;20048;-75
2022/08/22 09:29:41;;;;;;;3.63;2.40;;;;;;;26.06;55.64;100425.00;5074163;28;20052;-74
2022/08/22 09:32:47;;;;;;;3.38;2.67;;;;;;;26.06;55.11;100425.84;5076247;28;20048;-75
2022/08/22 09:35:14;;;;;;;4.05;2.58;;;;;;;26.08;55.07;100421.06;5077718;28;20052;-74
2022/08/22 09:37:45;;;;;;;2.90;2.35;;;;;;;26.09;54.75;100422.78;5082124;28;20051;-75
2022/08/22 09:40:20;;;;;;;3.08;2.30;;;;;;;26.11;54.55;100423.41;5076781;28;20049;-75
2022/08/22 09:43:14;;;;;;;3.50;2.00;;;;;;;26.11;53.90;100423.41;5075550;28;20527;-76
2022/08/22 09:46:16;;;;;;;3.75;2.55;;;;;;;26.13;54.17;100424.06;5074072;28;20052;-75
2022/08/22 09:48:56;;;;;;;3.88;2.10;;;;;;;26.15;53.94;100423.88;5074046;28;20417;-75
2022/08/22 09:51:45;;;;;;;3.13;2.15;;;;;;;26.17;53.73;100421.84;5074040;28;20048;-75
2022/08/22 09:54:28;;;;;;;3.65;2.38;;;;;;;26.18;53.37;100417.25;5073589;28;20063;-75
2022/08/22 09:57:18;;;;;;;2.85;2.13;;;;;;;26.19;53.45;100413.50;5073527;28;20044;-75
2022/08/22 10:00:04;;;;;;;2.80;2.47;;;;;;;26.20;53.34;100409.75;5074076;28;20064;-75
2022/08/22 10:02:46;;;;;;;3.92;2.35;;;;;;;26.21;53.19;100406.88;5073560;28;20048;-75
2022/08/22 10:05:27;;;;;;;3.20;2.40;;;;;;;26.23;53.22;100409.38;5073354;28;20048;-75
2022/08/22 10:08:28;;;;;;;3.30;2.78;;;;;;;26.26;52.93;100403.59;5072694;28;20045;-75
2022/08/22 10:11:02;;;;;;;2.80;2.10;;;;;;;26.26;52.71;100400.88;5071815;28;20052;-75
2022/08/22 10:13:45;;;;;;;3.67;2.40;;;;;;;26.27;52.26;100405.25;5072794;28;20052;-75
2022/08/22 10:16:38;;;;;;;3.33;2.00;;;;;;;26.29;51.98;100397.75;5072827;28;20417;-75
2022/08/22 10:19:16;;;;;;;3.05;2.05;;;;;;;26.29;51.96;100403.19;5056147;28;20057;-75
2022/08/22 10:21:47;;;;;;;3.17;2.00;;;;;;;26.30;51.78;100396.75;5072012;28;20159;-75
2022/08/22 10:24:38;;;;;;;5.18;1.95;;;;;;;26.30;51.37;100396.75;5072277;28;20045;-75
2022/08/22 10:27:29;;;;;;;3.92;1.98;;;;;;;26.31;50.41;100401.97;5074507;28;20048;-75
2022/08/22 10:30:20;;;;;;;2.92;1.90;;;;;;;26.33;50.51;100393.63;5075016;28;20486;-75
2022/08/22 10:32:47;;;;;;;2.22;1.70;;;;;;;26.32;50.09;100391.97;5074263;28;20048;-75
2022/08/22 10:35:28;;;;;;;2.10;1.60;;;;;;;26.32;49.92;100387.38;5074324;28;20045;-75
2022/08/22 10:38:06;;;;;;;2.45;1.83;;;;;;;26.33;49.69;100366.50;5074275;28;20044;-75
2022/08/22 10:40:52;;;;;;;2.47;1.92;;;;;;;26.34;50.20;100379.91;5074289;28;20423;-75
2022/08/22 10:43:35;;;;;;;3.67;1.95;;;;;;;26.34;49.60;100376.34;5074370;28;20056;-76
2022/08/22 10:46:07;;;;;;;2.92;1.50;;;;;;;26.34;48.46;100374.47;5074837;28;20480;-75
2022/08/22 10:48:46;;;;;;;2.38;1.60;;;;;;;26.36;49.22;100371.56;5074318;28;20396;-75
2022/08/22 10:51:30;;;;;;;2.42;2.17;;;;;;;26.38;48.17;100367.63;5074925;28;20044;-75
2022/08/22 10:54:36;;;;;;;2.40;1.70;;;;;;;26.39;49.03;100371.19;5073927;28;20492;-75
2022/08/22 10:57:16;;;;;;;2.05;1.45;;;;;;;26.39;49.12;100363.88;5074066;28;20059;-75
2022/08/22 11:00:00;;;;;;;3.55;1.73;;;;;;;26.39;48.62;100365.75;5073777;28;20400;-75
2022/08/22 11:02:34;;;;;;;3.42;1.98;;;;;;;26.41;48.37;100358.25;5072757;28;20044;-75
2022/08/22 11:05:17;;;;;;;3.47;1.73;;;;;;;26.44;48.01;100354.31;5073455;28;20055;-75
2022/08/22 11:07:54;;;;;;;2.38;1.83;;;;;;;26.45;47.97;100356.88;5073662;28;20081;-75
2022/08/22 11:10:50;;;;;;;6.85;1.60;;;;;;;26.49;47.30;100358.19;5073921;28;20427;-75
2022/08/22 11:13:45;;;;;;;4.13;1.70;;;;;;;26.58;48.35;100357.06;5073011;28;20080;-75
2022/08/22 11:16:54;;;;;;;2.30;1.60;;;;;;;26.59;48.12;100356.00;5073241;28;20045;-75
2022/08/22 11:19:42;;;;;;;1.98;1.40;;;;;;;26.61;48.27;100347.66;5053409;28;20203;-78
2022/08/22 11:22:14;;;;;;;2.67;1.40;;;;;;;26.61;48.41;100342.22;5071131;28;20051;-75
2022/08/22 11:25:02;;;;;;;2.00;1.50;;;;;;;26.63;47.94;100346.44;5071128;28;20416;-75
2022/08/22 11:27:51;;;;;;;3.35;1.63;;;;;;;26.65;47.62;100348.13;5054118;28;20098;-75
2022/08/22 11:30:42;;;;;;;4.85;1.70;;;;;;;26.66;48.19;100347.09;5071083;28;20112;-76
2022/08/22 11:33:26;;;;;;;2.13;1.67;;;;;;;26.64;48.36;100347.28;5036970;28;20055;-75
2022/08/22 11:36:46;;;;;;;2.35;1.40;;;;;;;26.62;47.99;100347.50;5071351;28;20448;-75
2022/08/22 11:39:33;;;;;;;2.60;1.50;;;;;;;26.61;48.31;100337.63;5054502;28;20055;-75
2022/08/22 11:42:13;;;;;;;2.10;1.20;;;;;;;26.60;48.13;100337.84;5054254;28;20475;-77
2022/08/22 11:44:50;;;;;;;2.85;1.58;;;;;;;26.59;47.98;100337.00;5072254;28;20052;-75
2022/08/22 11:47:23;;;;;;;3.13;1.55;;;;;;;26.70;46.30;100340.25;5071046;28;20404;-75
2022/08/22 11:50:17;;;;;;;1.98;1.52;;;;;;;26.71;47.48;100331.91;5070638;28;20064;-75
2022/08/22 11:53:02;;;;;;;2.40;1.20;;;;;;;26.72;47.78;100327.31;5072285;28;20084;-75
2022/08/22 11:55:53;;;;;;;2.17;1.42;;;;;;;26.70;47.65;100322.09;5072597;28;20059;-79
2022/08/22 11:58:38;;;;;;;2.15;1.40;;;;;;;26.69;48.16;100323.09;5074037;28;20045;-75
2022/08/22 12:01:20;;;;;;;1.95;1.40;;;;;;;26.70;48.21;100327.53;5073179;28;20457;-75
2022/08/22 12:04:09;;;;;;;2.10;1.45;;;;;;;26.70;47.60;100323.94;5073036;28;20488;-75
2022/08/22 12:06:56;;;;;;;2.33;1.60;;;;;;;26.68;48.06;100313.28;5072775;28;20048;-78
2022/08/22 12:09:49;;;;;;;2.60;1.88;;;;;;;26.67;48.12;100319.75;5071763;28;20044;-77
2022/08/22 12:12:41;;;;;;;2.45;1.50;;;;;;;26.68;47.97;100312.44;5072085;28;20040;-75
2022/08/22 12:15:41;;;;;;;3.55;1.67;;;;;;;26.66;47.98;100304.50;5072683;28;20049;-75
2022/08/22 12:18:21;;;;;;;2.35;1.50;;;;;;;26.65;48.05;100299.25;5072504;28;20040;-75
2022/08/22 12:21:21;;;;;;;2.15;1.52;;;;;;;26.63;47.79;100305.72;5071484;28;20115;-75
2022/08/22 12:24:06;;;;;;;3.08;1.38;;;;;;;26.63;47.31;100313.03;5072236;28;20056;-75
2022/08/22 12:26:45;;;;;;;3.08;1.55;;;;;;;26.63;47.39;100300.28;5072172;28;20045;-75
2022/08/22 12:29:36;;;;;;;3.28;1.65;;;;;;;26.63;47.80;100303.00;5072092;28;20045;-75
2022/08/22 12:32:20;;;;;;;2.70;1.50;;;;;;;26.62;47.43;100295.91;5070609;28;20142;-75
2022/08/22 12:35:13;;;;;;;;;;;;;;;26.61;47.13;100294.19;5073154;28;20071;-75
2022/08/22 12:38:06;;;;;;;2.40;1.55;;;;;;;26.63;47.31;100291.31;5075922;28;20272;-74
2022/08/22 12:41:27;;;;;;;2.10;1.17;;;;;;;26.62;47.38;100292.34;5077454;28;20037;-75
2022/08/22 12:44:17;;;;;;;2.08;1.17;;;;;;;26.62;47.01;100295.06;5096302;28;20040;-75
2022/08/22 12:46:45;;;;;;;2.25;1.40;;;;;;;26.62;47.33;100285.03;5096571;28;20067;-75
2022/08/22 12:49:30;;;;;;;2.50;1.30;;;;;;;26.62;46.76;100290.47;5094911;28;20044;-75